sensor_id;sensor_type;location;lat;lon;timestamp;P1;P2;P0
74436;PMS7003;62868;52.360;30.424;2022-12-07T00:04:56;0.8;0.5;0
74436;PMS7003;62868;52.360;30.424;2022-12-07T00:09:30;0.3;0.3;0
74436;PMS7003;62868;52.360;30.424;2022-12-07T00:14:44;0.3;0;0
74436;PMS7003;62868;52.360;30.424;2022-12-07T00:19:22;0.5;0;0
74436;PMS7003;62868;52.360;30.424;2022-12-07T00:24:54;1;0;0
74436;PMS7003;62868;52.360;30.424;2022-12-07T00:29:32;1.3;0.3;0
74436;PMS7003;62868;52.360;30.424;2022-12-07T00:34:42;0;0;0
74436;PMS7003;62868;52.360;30.424;2022-12-07T00:39:28;0.8;0;0
74436;PMS7003;62868;52.360;30.424;2022-12-07T00:44:30;0.3;0;0
74436;PMS7003;62868;52.360;30.424;2022-12-07T00:49:44;0;0;0
74436;PMS7003;62868;52.360;30.424;2022-12-07T00:54:40;0.3;0;0
74436;PMS7003;62868;52.360;30.424;2022-12-07T00:59:44;0.5;0;0
74436;PMS7003;62868;52.360;30.424;2022-12-07T01:04:42;1;0;0
74436;PMS7003;62868;52.360;30.424;2022-12-07T01:09:14;0.3;0;0
74436;PMS7003;62868;52.360;30.424;2022-12-07T01:14:58;1;0.3;0
74436;PMS7003;62868;52.360;30.424;2022-12-07T01:19:58;0.3;0;0
74436;PMS7003;62868;52.360;30.424;2022-12-07T01:24:32;0.3;0.3;0
74436;PMS7003;62868;52.360;30.424;2022-12-07T01:29:46;0;0;0
74436;PMS7003;62868;52.360;30.424;2022-12-07T01:34:24;0.7;0;0
74436;PMS7003;62868;52.360;30.424;2022-12-07T01:39:56;0.5;0.3;0
74436;PMS7003;62868;52.360;30.424;2022-12-07T01:45:15;0;0;0
74436;PMS7003;62868;52.360;30.424;2022-12-07T01:49:26;0.3;0.3;0
74436;PMS7003;62868;52.360;30.424;2022-12-07T01:54:24;0;0;0
74436;PMS7003;62868;52.360;30.424;2022-12-07T01:59:36;0.8;0.3;0
74436;PMS7003;62868;52.360;30.424;2022-12-07T02:04:38;1;0;0
74436;PMS7003;62868;52.360;30.424;2022-12-07T02:09:38;0;0;0
74436;PMS7003;62868;52.360;30.424;2022-12-07T02:14:46;1;0;0
74436;PMS7003;62868;52.360;30.424;2022-12-07T02:19:50;0.7;0.7;0
74436;PMS7003;62868;52.360;30.424;2022-12-07T02:24:15;0.7;0.3;0
74436;PMS7003;62868;52.360;30.424;2022-12-07T02:29:57;0;0;0
74436;PMS7003;62868;52.360;30.424;2022-12-07T02:35:00;0.3;0;0
74436;PMS7003;62868;52.360;30.424;2022-12-07T02:39:33;0;0;0
74436;PMS7003;62868;52.360;30.424;2022-12-07T02:44:44;0.7;0;0
74436;PMS7003;62868;52.360;30.424;2022-12-07T02:49:14;0;0;0
74436;PMS7003;62868;52.360;30.424;2022-12-07T02:54:56;0.3;0;0
74436;PMS7003;62868;52.360;30.424;2022-12-07T02:59:38;0;0;0
74436;PMS7003;62868;52.360;30.424;2022-12-07T03:04:48;0;0;0
74436;PMS7003;62868;52.360;30.424;2022-12-07T03:09:35;0.3;0;0
74436;PMS7003;62868;52.360;30.424;2022-12-07T03:14:15;0.3;0;0
74436;PMS7003;62868;52.360;30.424;2022-12-07T03:19:44;0.3;0;0
74436;PMS7003;62868;52.360;30.424;2022-12-07T03:24:45;1.7;0.3;0
74436;PMS7003;62868;52.360;30.424;2022-12-07T03:29:27;0.3;0.3;0
74436;PMS7003;62868;52.360;30.424;2022-12-07T03:34:45;0.8;0;0
74436;PMS7003;62868;52.360;30.424;2022-12-07T03:39:16;0.3;0.3;0
74436;PMS7003;62868;52.360;30.424;2022-12-07T03:44:58;0.3;0.3;0
74436;PMS7003;62868;52.360;30.424;2022-12-07T03:49:59;1.3;0;0
74436;PMS7003;62868;52.360;30.424;2022-12-07T03:54:23;1.3;0;0
74436;PMS7003;62868;52.360;30.424;2022-12-07T03:59:38;1.7;1;0.3
74436;PMS7003;62868;52.360;30.424;2022-12-07T04:04:26;0;0;0
74436;PMS7003;62868;52.360;30.424;2022-12-07T04:09:36;1.3;0;0
74436;PMS7003;62868;52.360;30.424;2022-12-07T04:14:58;1.7;0.3;0
74436;PMS7003;62868;52.360;30.424;2022-12-07T04:19:34;0;0;0
74436;PMS7003;62868;52.360;30.424;2022-12-07T04:25:00;0.7;0.7;0
74436;PMS7003;62868;52.360;30.424;2022-12-07T04:29:34;0.7;0.7;0
74436;PMS7003;62868;52.360;30.424;2022-12-07T04:34:44;1;0.7;0.3
74436;PMS7003;62868;52.360;30.424;2022-12-07T04:39:54;1;0.3;0
74436;PMS7003;62868;52.360;30.424;2022-12-07T04:44:58;0;0;0
74436;PMS7003;62868;52.360;30.424;2022-12-07T04:49:58;0.7;0.3;0
74436;PMS7003;62868;52.360;30.424;2022-12-07T04:54:24;1;0.7;0
74436;PMS7003;62868;52.360;30.424;2022-12-07T04:59:48;0.8;0.5;0
74436;PMS7003;62868;52.360;30.424;2022-12-07T05:04:38;0.7;0;0
74436;PMS7003;62868;52.360;30.424;2022-12-07T05:09:48;0.7;0.3;0
74436;PMS7003;62868;52.360;30.424;2022-12-07T05:14:32;0.3;0.3;0.3
74436;PMS7003;62868;52.360;30.424;2022-12-07T05:19:14;1.5;1.3;0.8
74436;PMS7003;62868;52.360;30.424;2022-12-07T05:24:34;1.3;0.3;0.3
74436;PMS7003;62868;52.360;30.424;2022-12-07T05:29:58;1.3;0.7;0
74436;PMS7003;62868;52.360;30.424;2022-12-07T05:34:34;1.3;1;0.7
74436;PMS7003;62868;52.360;30.424;2022-12-07T05:39:56;3.5;1.5;1
74436;PMS7003;62868;52.360;30.424;2022-12-07T05:44:26;2;0.7;0.3
74436;PMS7003;62868;52.360;30.424;2022-12-07T05:49:46;0.7;0.3;0.3
74436;PMS7003;62868;52.360;30.424;2022-12-07T05:54:48;2.3;1;0.7
74436;PMS7003;62868;52.360;30.424;2022-12-07T05:59:56;1.5;0.5;0.3
74436;PMS7003;62868;52.360;30.424;2022-12-07T06:04:54;1.3;1;0.3
74436;PMS7003;62868;52.360;30.424;2022-12-07T06:09:25;0.7;0.3;0
74436;PMS7003;62868;52.360;30.424;2022-12-07T06:14:42;1.3;1;0.5
74436;PMS7003;62868;52.360;30.424;2022-12-07T06:19:38;1.7;1.7;0.7
74436;PMS7003;62868;52.360;30.424;2022-12-07T06:24:50;1.3;1.3;1
74436;PMS7003;62868;52.360;30.424;2022-12-07T06:29:36;1.7;1.3;0.3
74436;PMS7003;62868;52.360;30.424;2022-12-07T06:34:15;2;0.8;0.5
74436;PMS7003;62868;52.360;30.424;2022-12-07T06:39:38;0.7;0;0
74436;PMS7003;62868;52.360;30.424;2022-12-07T06:44:58;1;0.7;0.7
74436;PMS7003;62868;52.360;30.424;2022-12-07T06:49:34;2;1;0.7
74436;PMS7003;62868;52.360;30.424;2022-12-07T06:54:56;0.3;0.3;0
74436;PMS7003;62868;52.360;30.424;2022-12-07T06:59:22;1.7;0.7;0
74436;PMS7003;62868;52.360;30.424;2022-12-07T07:04:44;3.7;0.7;0.7
74436;PMS7003;62868;52.360;30.424;2022-12-07T07:09:46;1;0.7;0.3
74436;PMS7003;62868;52.360;30.424;2022-12-07T07:14:56;3.5;0.8;0.5
74436;PMS7003;62868;52.360;30.424;2022-12-07T07:19:56;0.3;0.3;0
74436;PMS7003;62868;52.360;30.424;2022-12-07T07:24:32;1.7;0.3;0
74436;PMS7003;62868;52.360;30.424;2022-12-07T07:29:58;2.7;1;0.7
74436;PMS7003;62868;52.360;30.424;2022-12-07T07:34:39;0.8;0.5;0.5
74436;PMS7003;62868;52.360;30.424;2022-12-07T07:39:36;1.3;0.7;0
74436;PMS7003;62868;52.360;30.424;2022-12-07T07:44:32;1.3;0.7;0.3
74436;PMS7003;62868;52.360;30.424;2022-12-07T07:49:24;1;0.7;0.3
74436;PMS7003;62868;52.360;30.424;2022-12-07T07:54:34;1;0.8;0.5
74436;PMS7003;62868;52.360;30.424;2022-12-07T07:59:58;1.3;0.3;0
74436;PMS7003;62868;52.360;30.424;2022-12-07T08:04:36;1;1;0.7
74436;PMS7003;62868;52.360;30.424;2022-12-07T08:09:56;0.8;0.3;0.3
74436;PMS7003;62868;52.360;30.424;2022-12-07T08:14:12;0.3;0.3;0
74436;PMS7003;62868;52.360;30.424;2022-12-07T08:19:44;1.7;1.3;1
74436;PMS7003;62868;52.360;30.424;2022-12-07T08:24:48;0.7;0.7;0.3
74436;PMS7003;62868;52.360;30.424;2022-12-07T08:29:58;2;1;0.5
74436;PMS7003;62868;52.360;30.424;2022-12-07T08:34:46;1.3;1;0.3
74436;PMS7003;62868;52.360;30.424;2022-12-07T08:39:24;1.3;1;0.7
74436;PMS7003;62868;52.360;30.424;2022-12-07T08:44:48;3.3;2.7;1.3
74436;PMS7003;62868;52.360;30.424;2022-12-07T08:49:16;4.3;2.8;1.8
74436;PMS7003;62868;52.360;30.424;2022-12-07T08:54:50;6.7;4.3;3.3
74436;PMS7003;62868;52.360;30.424;2022-12-07T08:59:34;7.7;5.3;4
74436;PMS7003;62868;52.360;30.424;2022-12-07T09:04:14;16.7;10;7.3
74436;PMS7003;62868;52.360;30.424;2022-12-07T09:09:34;16;11.5;8
74436;PMS7003;62868;52.360;30.424;2022-12-07T09:14:56;14.7;10.3;6.3
74436;PMS7003;62868;52.360;30.424;2022-12-07T09:19:44;5.7;4.3;2.7
74436;PMS7003;62868;52.360;30.424;2022-12-07T09:24:59;5.3;3.3;2
74436;PMS7003;62868;52.360;30.424;2022-12-07T09:29:24;4.3;2.5;1.3
74436;PMS7003;62868;52.360;30.424;2022-12-07T09:34:44;5.7;4.7;2.7
74436;PMS7003;62868;52.360;30.424;2022-12-07T09:39:56;5.3;3.7;2
74436;PMS7003;62868;52.360;30.424;2022-12-07T09:44:44;15.7;11;7.3
74436;PMS7003;62868;52.360;30.424;2022-12-07T09:50:03;9.3;6.8;4.5
74436;PMS7003;62868;52.360;30.424;2022-12-07T09:54:24;7.3;5.3;3.3
74436;PMS7003;62868;52.360;30.424;2022-12-07T09:59:46;4;2.7;2
74436;PMS7003;62868;52.360;30.424;2022-12-07T10:04:15;9.8;7.8;6
74436;PMS7003;62868;52.360;30.424;2022-12-07T10:09:48;9.7;7.3;4.7
74436;PMS7003;62868;52.360;30.424;2022-12-07T10:14:33;4.7;3.7;3
74436;PMS7003;62868;52.360;30.424;2022-12-07T10:19:19;6;4.7;4
74436;PMS7003;62868;52.360;30.424;2022-12-07T10:24:37;5.8;5.3;4
74436;PMS7003;62868;52.360;30.424;2022-12-07T10:30:01;8.7;7.7;5.3
74436;PMS7003;62868;52.360;30.424;2022-12-07T10:34:38;13.3;10.3;7.7
74436;PMS7003;62868;52.360;30.424;2022-12-07T10:40:00;14.7;11;7.3
74436;PMS7003;62868;52.360;30.424;2022-12-07T10:44:25;12;8.3;5.8
74436;PMS7003;62868;52.360;30.424;2022-12-07T10:49:41;10.3;9;7.3
74436;PMS7003;62868;52.360;30.424;2022-12-07T10:54:28;7.3;5.3;4.3
74436;PMS7003;62868;52.360;30.424;2022-12-07T11:00:01;11.3;6.3;4.7
74436;PMS7003;62868;52.360;30.424;2022-12-07T11:05:02;8.3;6;4.3
74436;PMS7003;62868;52.360;30.424;2022-12-07T11:09:20;6.3;3.7;2.3
74436;PMS7003;62868;52.360;30.424;2022-12-07T11:14:48;6;4.3;2.7
74436;PMS7003;62868;52.360;30.424;2022-12-07T11:19:41;4.3;3.3;2
74436;PMS7003;62868;52.360;30.424;2022-12-07T11:24:49;6.5;5.3;3.5
74436;PMS7003;62868;52.360;30.424;2022-12-07T11:29:37;10.3;8;5
74436;PMS7003;62868;52.360;30.424;2022-12-07T11:34:15;11.7;9;5.7
74436;PMS7003;62868;52.360;30.424;2022-12-07T11:39:16;9.7;8;5.7
74436;PMS7003;62868;52.360;30.424;2022-12-07T11:44:59;10.5;7;5.8
74436;PMS7003;62868;52.360;30.424;2022-12-07T11:49:39;9.7;7.7;6.3
74436;PMS7003;62868;52.360;30.424;2022-12-07T11:54:59;8;7.3;5
74436;PMS7003;62868;52.360;30.424;2022-12-07T11:59:16;7.5;5;4
74436;PMS7003;62868;52.360;30.424;2022-12-07T12:04:47;6;4.3;3.3
74436;PMS7003;62868;52.360;30.424;2022-12-07T12:09:48;8.3;6.3;4.3
74436;PMS7003;62868;52.360;30.424;2022-12-07T12:15:02;9;8;5.3
74436;PMS7003;62868;52.360;30.424;2022-12-07T12:20:00;6.3;4.8;3.8
74436;PMS7003;62868;52.360;30.424;2022-12-07T12:24:32;6;5.3;3.3
74436;PMS7003;62868;52.360;30.424;2022-12-07T12:29:52;6.7;6;4
74436;PMS7003;62868;52.360;30.424;2022-12-07T12:34:39;9;7.7;4.7
74436;PMS7003;62868;52.360;30.424;2022-12-07T12:40:12;7.8;6.3;4.5
74436;PMS7003;62868;52.360;30.424;2022-12-07T12:44:40;9;5.7;4.3
74436;PMS7003;62868;52.360;30.424;2022-12-07T12:49:35;8.7;7.3;4.7
74436;PMS7003;62868;52.360;30.424;2022-12-07T12:54:38;8.3;7.3;4.7
74436;PMS7003;62868;52.360;30.424;2022-12-07T13:00:01;7;6;3.8
74436;PMS7003;62868;52.360;30.424;2022-12-07T13:04:48;7.3;4.7;3.3
74436;PMS7003;62868;52.360;30.424;2022-12-07T13:10:01;5;5;4.3
74436;PMS7003;62868;52.360;30.424;2022-12-07T13:15:31;5;4;3.3
74436;PMS7003;62868;52.360;30.424;2022-12-07T13:19:54;5.5;5;3
74436;PMS7003;62868;52.360;30.424;2022-12-07T13:24:14;8.3;5;3.3
74436;PMS7003;62868;52.360;30.424;2022-12-07T13:29:44;7;4;3.3
74436;PMS7003;62868;52.360;30.424;2022-12-07T13:34:58;5.8;4.8;2.8
74436;PMS7003;62868;52.360;30.424;2022-12-07T13:39:25;9;6.3;4.3
74436;PMS7003;62868;52.360;30.424;2022-12-07T13:45:16;6.7;4.7;3.3
74436;PMS7003;62868;52.360;30.424;2022-12-07T13:49:49;6.7;5;2.7
74436;PMS7003;62868;52.360;30.424;2022-12-07T13:54:55;5.3;4.8;3
74436;PMS7003;62868;52.360;30.424;2022-12-07T13:59:32;5.3;4.3;3.3
74436;PMS7003;62868;52.360;30.424;2022-12-07T14:04:29;6;5.3;3.3
74436;PMS7003;62868;52.360;30.424;2022-12-07T14:09:52;4.7;2;2
74436;PMS7003;62868;52.360;30.424;2022-12-07T14:14:57;5.5;4.3;2
74436;PMS7003;62868;52.360;30.424;2022-12-07T14:20:02;6;4.7;3.3
74436;PMS7003;62868;52.360;30.424;2022-12-07T14:25:16;8;4;3.7
74436;PMS7003;62868;52.360;30.424;2022-12-07T14:29:18;6;5;2.7
74436;PMS7003;62868;52.360;30.424;2022-12-07T14:34:59;5.8;4.3;2.5
74436;PMS7003;62868;52.360;30.424;2022-12-07T14:39:59;4.7;4.3;2.7
74436;PMS7003;62868;52.360;30.424;2022-12-07T14:44:44;6;4.3;2.7
74436;PMS7003;62868;52.360;30.424;2022-12-07T14:49:59;5;2.7;2
74436;PMS7003;62868;52.360;30.424;2022-12-07T14:54:26;6.8;5.5;3.5
74436;PMS7003;62868;52.360;30.424;2022-12-07T14:59:58;9.3;6.7;4.7
74436;PMS7003;62868;52.360;30.424;2022-12-07T15:04:48;6.7;5.7;4.3
74436;PMS7003;62868;52.360;30.424;2022-12-07T15:09:49;8.3;7.3;5
74436;PMS7003;62868;52.360;30.424;2022-12-07T15:14:32;13.5;9.8;6.3
74436;PMS7003;62868;52.360;30.424;2022-12-07T15:19:26;13.3;8.7;5
74436;PMS7003;62868;52.360;30.424;2022-12-07T15:24:38;7.7;6.3;4.3
74436;PMS7003;62868;52.360;30.424;2022-12-07T15:30:00;8.8;7.5;5.5
74436;PMS7003;62868;52.360;30.424;2022-12-07T15:34:37;6;3.3;3.3
74436;PMS7003;62868;52.360;30.424;2022-12-07T15:39:58;5.3;2.7;1.3
74436;PMS7003;62868;52.360;30.424;2022-12-07T15:44:24;5;4.7;2
74436;PMS7003;62868;52.360;30.424;2022-12-07T15:49:48;5.5;3.8;2.5
74436;PMS7003;62868;52.360;30.424;2022-12-07T15:54:39;5;5;3
74436;PMS7003;62868;52.360;30.424;2022-12-07T15:59:39;4.3;3;2.3
74436;PMS7003;62868;52.360;30.424;2022-12-07T16:04:49;3.7;3.3;1.7
74436;PMS7003;62868;52.360;30.424;2022-12-07T16:09:15;4;2;1.8
74436;PMS7003;62868;52.360;30.424;2022-12-07T16:14:57;5.7;3;2
74436;PMS7003;62868;52.360;30.424;2022-12-07T16:19:47;2.7;1.3;1.3
74436;PMS7003;62868;52.360;30.424;2022-12-07T16:24:51;3;2;1
74436;PMS7003;62868;52.360;30.424;2022-12-07T16:29:35;3.8;3;1.8
74436;PMS7003;62868;52.360;30.424;2022-12-07T16:34:25;4.7;3.3;2
74436;PMS7003;62868;52.360;30.424;2022-12-07T16:39:25;5.7;4;2.7
74436;PMS7003;62868;52.360;30.424;2022-12-07T16:44:55;6;4.3;2
74436;PMS7003;62868;52.360;30.424;2022-12-07T16:49:15;5.5;4.3;2.3
74436;PMS7003;62868;52.360;30.424;2022-12-07T16:55:01;4;3.3;2
74436;PMS7003;62868;52.360;30.424;2022-12-07T16:59:27;5.3;3.7;2.7
74436;PMS7003;62868;52.360;30.424;2022-12-07T17:04:45;6.3;3.3;1.7
74436;PMS7003;62868;52.360;30.424;2022-12-07T17:09:25;5.3;3.8;2.3
74436;PMS7003;62868;52.360;30.424;2022-12-07T17:14:59;7;5.7;3.3
74436;PMS7003;62868;52.360;30.424;2022-12-07T17:19:59;3.3;2.3;1.7
74436;PMS7003;62868;52.360;30.424;2022-12-07T17:24:15;5.5;4.5;2
74436;PMS7003;62868;52.360;30.424;2022-12-07T17:29:59;6;5;2.5
74436;PMS7003;62868;52.360;30.424;2022-12-07T17:34:57;7;6.3;3.3
74436;PMS7003;62868;52.360;30.424;2022-12-07T17:39:51;4.7;3.3;1.7
74436;PMS7003;62868;52.360;30.424;2022-12-07T17:44:33;5.3;4.3;1.7
74436;PMS7003;62868;52.360;30.424;2022-12-07T17:49:26;4.3;3.5;1.8
74436;PMS7003;62868;52.360;30.424;2022-12-07T17:54:27;4.3;2;2
74436;PMS7003;62868;52.360;30.424;2022-12-07T17:59:57;5.7;3.3;1.7
74436;PMS7003;62868;52.360;30.424;2022-12-07T18:04:27;6.8;5;2.5
74436;PMS7003;62868;52.360;30.424;2022-12-07T18:09:59;5;3.3;2
74436;PMS7003;62868;52.360;30.424;2022-12-07T18:14:15;7.7;4.7;2.7
74436;PMS7003;62868;52.360;30.424;2022-12-07T18:19:27;6.3;4.7;3.7
74436;PMS7003;62868;52.360;30.424;2022-12-07T18:24:49;5.5;4.5;2.5
74436;PMS7003;62868;52.360;30.424;2022-12-07T18:29:47;5.7;4.7;3
74436;PMS7003;62868;52.360;30.424;2022-12-07T18:34:49;5.3;5;2.7
74436;PMS7003;62868;52.360;30.424;2022-12-07T18:39:16;6.3;4.3;2.7
74436;PMS7003;62868;52.360;30.424;2022-12-07T18:44:25;5;4;3
74436;PMS7003;62868;52.360;30.424;2022-12-07T18:49:45;6.7;4.3;2.7
74436;PMS7003;62868;52.360;30.424;2022-12-07T18:54:49;7;4.7;2.7
74436;PMS7003;62868;52.360;30.424;2022-12-07T18:59:15;6;4.3;2.7
74436;PMS7003;62868;52.360;30.424;2022-12-07T19:04:15;6;4.3;3
74436;PMS7003;62868;52.360;30.424;2022-12-07T19:09:15;4.7;3.3;1.7
74436;PMS7003;62868;52.360;30.424;2022-12-07T19:14:57;5.7;4.3;2
74436;PMS7003;62868;52.360;30.424;2022-12-07T19:19:51;7.3;5.7;4
74436;PMS7003;62868;52.360;30.424;2022-12-07T19:24:59;9;5.5;4.3
74436;PMS7003;62868;52.360;30.424;2022-12-07T19:29:15;4.5;3.5;2
74436;PMS7003;62868;52.360;30.424;2022-12-07T19:34:27;5.7;4.7;3.3
74436;PMS7003;62868;52.360;30.424;2022-12-07T19:39:25;5.3;3;2.3
74436;PMS7003;62868;52.360;30.424;2022-12-07T19:44:45;7;4.8;3
74436;PMS7003;62868;52.360;30.424;2022-12-07T19:49:47;9.3;4.7;3.3
74436;PMS7003;62868;52.360;30.424;2022-12-07T19:54:25;7;6.3;3.7
74436;PMS7003;62868;52.360;30.424;2022-12-07T19:59:15;8.3;6;3.3
74436;PMS7003;62868;52.360;30.424;2022-12-07T20:04:59;4.7;4;3.3
74436;PMS7003;62868;52.360;30.424;2022-12-07T20:09:51;5.3;4.3;2.7
74436;PMS7003;62868;52.360;30.424;2022-12-07T20:14:15;5.3;3.7;2.3
74436;PMS7003;62868;52.360;30.424;2022-12-07T20:19:15;7;5.8;4
74436;PMS7003;62868;52.360;30.424;2022-12-07T20:24:15;6.7;5.3;2.7
74436;PMS7003;62868;52.360;30.424;2022-12-07T20:29:57;5.7;5;3.3
74436;PMS7003;62868;52.360;30.424;2022-12-07T20:34:35;7.7;6.7;3.7
74436;PMS7003;62868;52.360;30.424;2022-12-07T20:39:59;7.8;5.8;3
74436;PMS7003;62868;52.360;30.424;2022-12-07T20:44:25;6.3;4.7;3.3
74436;PMS7003;62868;52.360;30.424;2022-12-07T20:49:25;8;5.3;2.7
74436;PMS7003;62868;52.360;30.424;2022-12-07T20:54:25;5.3;5.3;3.7
74436;PMS7003;62868;52.360;30.424;2022-12-07T20:59:45;8;6;3
74436;PMS7003;62868;52.360;30.424;2022-12-07T21:04:59;5.7;5;4
74436;PMS7003;62868;52.360;30.424;2022-12-07T21:09:27;9;6.3;4.3
74436;PMS7003;62868;52.360;30.424;2022-12-07T21:14:15;6.8;4.5;3
74436;PMS7003;62868;52.360;30.424;2022-12-07T21:20:01;4.7;4.7;3.3
74436;PMS7003;62868;52.360;30.424;2022-12-07T21:24:29;5.7;2.7;1.3
74436;PMS7003;62868;52.360;30.424;2022-12-07T21:29:35;5.3;3.3;2.7
74436;PMS7003;62868;52.360;30.424;2022-12-07T21:34:15;6.3;4.5;2.5
74436;PMS7003;62868;52.360;30.424;2022-12-07T21:39:15;4.7;4.7;3.3
74436;PMS7003;62868;52.360;30.424;2022-12-07T21:44:55;8;4.7;2.7
74436;PMS7003;62868;52.360;30.424;2022-12-07T21:49:33;8.3;4.3;3.3
74436;PMS7003;62868;52.360;30.424;2022-12-07T21:54:57;7.5;4.8;3
74436;PMS7003;62868;52.360;30.424;2022-12-07T21:59:23;7.3;4.3;2
74436;PMS7003;62868;52.360;30.424;2022-12-07T22:04:16;7.3;4.3;2.7
74436;PMS7003;62868;52.360;30.424;2022-12-07T22:09:21;8.7;6;3.3
74436;PMS7003;62868;52.360;30.424;2022-12-07T22:14:39;6;4.3;3.5
74436;PMS7003;62868;52.360;30.424;2022-12-07T22:19:43;6;3.7;2.7
74436;PMS7003;62868;52.360;30.424;2022-12-07T22:24:57;5;3.3;2.3
74436;PMS7003;62868;52.360;30.424;2022-12-07T22:29:15;5.3;3.7;2.7
74436;PMS7003;62868;52.360;30.424;2022-12-07T22:34:55;7.3;4;2.5
74436;PMS7003;62868;52.360;30.424;2022-12-07T22:39:57;3.3;3.3;1.7
74436;PMS7003;62868;52.360;30.424;2022-12-07T22:44:29;7;4;2.7
74436;PMS7003;62868;52.360;30.424;2022-12-07T22:49:37;4.7;4;2.7
74436;PMS7003;62868;52.360;30.424;2022-12-07T22:54:15;5.3;3.3;1.8
74436;PMS7003;62868;52.360;30.424;2022-12-07T22:59:55;4.3;2.3;1.3
74436;PMS7003;62868;52.360;30.424;2022-12-07T23:04:31;4.3;3.7;2.3
74436;PMS7003;62868;52.360;30.424;2022-12-07T23:09:41;5;2.5;1.8
74436;PMS7003;62868;52.360;30.424;2022-12-07T23:14:30;4.7;2.7;1.3
74436;PMS7003;62868;52.360;30.424;2022-12-07T23:19:15;4;3.3;1.7
74436;PMS7003;62868;52.360;30.424;2022-12-07T23:24:31;6;4.3;2.7
74436;PMS7003;62868;52.360;30.424;2022-12-07T23:29:41;6.8;3.5;2
74436;PMS7003;62868;52.360;30.424;2022-12-07T23:34:45;6.7;3.7;2.3
74436;PMS7003;62868;52.360;30.424;2022-12-07T23:39:43;5;3.7;2
74436;PMS7003;62868;52.360;30.424;2022-12-07T23:44:21;6.7;4;2.3
74436;PMS7003;62868;52.360;30.424;2022-12-07T23:49:53;6.8;4.5;2.5
74436;PMS7003;62868;52.360;30.424;2022-12-07T23:54:55;8;5.3;3.7
74436;PMS7003;62868;52.360;30.424;2022-12-07T23:59:23;5;4.3;2
